.
WxDataArchive / Data Records for 2009-07-25
2009-07-24 July 2009 2009-07-26

Data Records for Saturday, 25 July 2009

Time	Temp	Chill	HIndex	Humid	Dewpt	 Wind 	HiWind	WindDir	Rain 	Barom 
-----	----	-----	------	-----	-----	------	------	-------	-----	----- 
00:00	68.8	68.8	68.8	76	60.9	0	0	---	0.00	29.807 
00:05	68.8	68.8	68.8	76	60.9	0	0	---	0.00	29.807 
00:10	68.6	68.6	68.6	76	60.7	0	0	---	0.00	29.807 
00:15	68.6	68.6	68.6	77	61.1	0	1	292	0.00	29.800 
00:20	68.6	68.6	68.6	77	61.1	0	0	---	0.00	29.800 
00:25	68.6	68.6	68.6	77	61.1	0	0	---	0.00	29.800 
00:30	68.6	68.6	68.6	77	61.1	0	1	292	0.00	29.803 
00:35	68.6	68.6	68.6	77	61.1	0	0	---	0.00	29.803 
00:40	68.6	68.6	68.6	77	61.1	0	0	---	0.00	29.803 
00:45	68.6	68.6	68.6	78	61.5	0	0	---	0.00	29.805 
00:50	68.4	68.4	68.4	78	61.3	0	0	---	0.00	29.805 
00:55	68.4	68.4	68.4	79	61.6	0	0	---	0.00	29.805 
01:00	68.4	68.4	68.4	79	61.6	0	0	---	0.00	29.804 
01:05	68.4	68.4	68.4	80	62.0	0	0	---	0.00	29.804 
01:10	68.4	68.4	68.4	80	62.0	0	1	292	0.00	29.804 
01:15	68.4	68.4	68.4	80	62.0	0	0	---	0.00	29.788 
01:20	68.4	68.4	68.4	80	62.0	0	1	292	0.00	29.788 
01:25	68.4	68.4	68.4	80	62.0	0	0	---	0.00	29.788 
01:30	68.4	68.4	68.4	81	62.3	0	1	292	0.00	29.782 
01:35	68.4	68.4	68.4	81	62.3	0	0	---	0.00	29.782 
01:40	68.4	68.4	68.4	81	62.3	0	0	---	0.00	29.782 
01:45	68.3	68.3	68.3	81	62.2	0	0	---	0.00	29.788 
01:50	68.1	68.1	68.1	81	62.0	0	0	---	0.00	29.788 
01:55	68.1	68.1	68.1	82	62.4	0	1	292	0.00	29.788 
02:00	67.9	67.9	67.9	82	62.2	0	1	292	0.00	29.785 
02:05	67.9	67.9	67.9	83	62.5	0	1	292	0.00	29.785 
02:10	67.9	67.9	67.9	83	62.5	0	2	292	0.00	29.785 
02:15	68.1	68.1	68.1	83	62.7	0	3	248	0.00	29.779 
02:20	68.1	68.1	68.1	83	62.7	0	2	248	0.00	29.779 
02:25	68.3	68.3	68.3	83	62.9	0	1	248	0.00	29.779 
02:30	68.3	68.3	68.3	83	62.9	0	1	248	0.00	29.773 
02:35	68.4	68.4	68.4	83	63.0	0	3	90	0.00	29.773 
02:40	68.6	68.6	68.6	82	62.9	0	3	112	0.00	29.773 
02:45	68.6	68.6	68.6	82	62.9	0	1	112	0.00	29.758 
02:50	68.8	68.8	68.8	82	63.1	0	2	112	0.00	29.758 
02:55	68.8	68.8	68.8	82	63.1	0	1	68	0.00	29.758 
03:00	68.8	68.8	68.8	82	63.1	0	2	68	0.00	29.756 
03:05	68.9	68.9	68.9	82	63.2	0	2	68	0.00	29.756 
03:10	68.9	68.9	68.9	82	63.2	0	2	68	0.00	29.756 
03:15	68.9	68.9	68.9	82	63.2	0	3	68	0.00	29.745 
03:20	68.9	68.9	68.9	82	63.2	0	3	90	0.00	29.745 
03:25	68.9	68.9	68.9	83	63.5	1	3	90	0.00	29.745 
03:30	68.9	68.9	68.9	83	63.5	0	1	90	0.00	29.729 
03:35	68.9	68.9	68.9	83	63.5	1	3	90	0.00	29.729 
03:40	68.9	68.9	68.9	83	63.5	1	4	90	0.00	29.729 
03:45	68.9	68.9	68.9	83	63.5	1	5	112	0.00	29.721 
03:50	69.1	69.1	69.1	83	63.7	1	3	112	0.00	29.721 
03:55	69.1	69.1	69.1	83	63.7	1	4	112	0.00	29.721 
04:00	69.1	69.1	69.1	83	63.7	0	3	112	0.00	29.706 
04:05	69.1	69.1	69.1	83	63.7	0	1	112	0.00	29.706 
04:10	69.1	69.1	69.1	83	63.7	1	2	112	0.00	29.706 
04:15	69.1	69.1	69.1	84	64.1	1	3	90	0.00	29.690 
04:20	69.1	69.1	69.1	84	64.1	1	2	135	0.00	29.690 
04:25	69.1	69.1	69.1	84	64.1	1	3	112	0.00	29.690 
04:30	69.1	69.1	69.1	84	64.1	1	4	90	0.00	29.684 
04:35	69.3	69.3	69.3	84	64.2	1	4	135	0.00	29.684 
04:40	69.3	69.3	69.3	84	64.2	1	4	90	0.00	29.684 
04:45	69.4	69.4	69.4	84	64.3	0	2	90	0.00	29.687 
04:50	69.4	69.4	69.4	85	64.7	1	3	90	0.10	29.687 
04:55	69.1	69.1	69.1	88	65.4	2	7	270	0.11	29.687 
05:00	67.9	67.9	67.9	89	64.5	3	11	270	0.07	29.699 
05:05	66.9	66.9	66.9	90	63.9	1	4	292	0.01	29.699 
05:10	66.8	66.8	66.8	90	63.8	0	1	292	0.00	29.699 
05:15	66.6	66.6	66.6	91	63.9	0	2	22	0.01	29.694 
05:20	66.8	66.8	66.8	92	64.4	0	1	22	0.01	29.694 
05:25	67.1	67.1	67.1	93	65.0	0	1	22	0.00	29.694 
05:30	67.4	67.4	67.4	93	65.3	0	2	22	0.01	29.677 
05:35	67.6	67.6	67.6	94	65.8	1	2	22	0.00	29.677 
05:40	67.8	67.8	67.8	94	66.0	1	3	45	0.01	29.677 
05:45	67.8	67.8	67.8	94	66.0	1	4	135	0.00	29.636 
05:50	67.8	67.8	67.8	94	66.0	1	3	112	0.00	29.636 
05:55	67.6	67.6	67.6	94	65.8	2	5	90	0.00	29.636 
06:00	67.4	67.4	67.4	94	65.6	0	1	68	0.00	29.633 
06:05	67.4	67.4	67.4	94	65.6	0	3	68	0.00	29.633 
06:10	67.4	67.4	67.4	94	65.6	0	3	68	0.00	29.633 
06:15	67.1	67.1	67.1	94	65.3	1	2	248	0.00	29.649 
06:20	66.9	66.9	66.9	94	65.1	0	1	248	0.00	29.649 
06:25	66.9	66.9	66.9	94	65.1	0	2	248	0.00	29.649 
06:30	66.6	66.6	66.6	94	64.8	0	3	248	0.00	29.650 
06:35	66.4	66.4	66.4	94	64.6	0	2	248	0.00	29.650 
06:40	66.3	66.3	66.3	94	64.5	0	2	248	0.00	29.650 
06:45	66.1	66.1	66.1	94	64.3	1	5	248	0.00	29.665 
06:50	66.0	66.0	66.0	94	64.2	1	3	270	0.00	29.665 
06:55	65.8	65.8	65.8	94	64.0	1	4	270	0.00	29.665 
07:00	65.6	65.6	65.6	94	63.8	1	6	270	0.00	29.665 
07:05	65.6	65.6	65.6	95	64.1	1	4	248	0.00	29.665 
07:10	65.5	65.5	65.5	95	64.0	1	4	270	0.00	29.665 
07:15	65.5	65.5	65.5	95	64.0	2	5	248	0.00	29.673 
07:20	65.3	65.3	65.3	95	63.8	1	3	270	0.00	29.673 
07:25	65.3	65.3	65.3	95	63.8	1	5	248	0.00	29.673 
07:30	65.3	65.3	65.3	95	63.8	2	5	248	0.00	29.679 
07:35	65.3	65.3	65.3	95	63.8	1	3	248	0.00	29.679 
07:40	65.3	65.3	65.3	95	63.8	2	5	270	0.00	29.679 
07:45	65.3	65.3	65.3	95	63.8	1	4	270	0.00	29.682 
07:50	65.3	65.3	65.3	95	63.8	2	4	270	0.00	29.682 
07:55	65.3	65.3	65.3	95	63.8	2	6	270	0.00	29.682 
08:00	65.3	65.3	65.3	94	63.5	2	5	248	0.00	29.690 
08:05	65.3	65.3	65.3	94	63.5	1	5	248	0.00	29.690 
08:10	65.3	65.3	65.3	94	63.5	1	3	248	0.00	29.690 
08:15	65.5	65.5	65.5	95	64.0	1	4	248	0.00	29.697 
08:20	65.6	65.6	65.6	95	64.1	1	4	270	0.00	29.697 
08:25	65.6	65.6	65.6	95	64.1	1	4	270	0.00	29.697 
08:30	65.8	65.8	65.8	95	64.3	1	5	270	0.00	29.701 
08:35	66.0	66.0	66.0	94	64.2	2	6	270	0.00	29.701 
08:40	66.3	66.3	66.3	94	64.5	2	5	270	0.00	29.701 
08:45	66.3	66.3	66.3	94	64.5	2	5	248	0.00	29.708 
08:50	66.4	66.4	66.4	94	64.6	1	4	248	0.00	29.708 
08:55	66.4	66.4	66.4	94	64.6	1	4	248	0.00	29.708 
09:00	66.4	66.4	66.4	93	64.3	2	5	248	0.00	29.709 
09:05	66.6	66.6	66.6	93	64.5	1	4	270	0.00	29.709 
09:10	66.8	66.8	66.8	93	64.7	1	6	292	0.00	29.709 
09:15	66.8	66.8	66.8	92	64.4	2	5	248	0.00	29.717 
09:20	66.9	66.9	66.9	92	64.5	1	4	270	0.00	29.717 
09:25	67.1	67.1	67.1	92	64.7	1	4	270	0.00	29.717 
09:30	67.1	67.1	67.1	91	64.4	2	6	270	0.00	29.717 
09:35	67.4	67.4	67.4	91	64.7	1	5	248	0.00	29.717 
09:40	67.6	67.6	67.6	89	64.2	2	4	270	0.00	29.717 
09:45	67.9	67.9	67.9	88	64.2	2	4	270	0.00	29.716 
09:50	68.3	68.3	68.3	86	63.9	2	6	270	0.00	29.716 
09:55	68.3	68.3	68.3	84	63.3	2	6	270	0.00	29.716 
10:00	68.6	68.6	68.6	84	63.6	2	5	270	0.00	29.716 
10:05	68.9	68.9	68.9	83	63.5	2	4	248	0.00	29.716 
10:10	68.8	68.8	68.8	81	62.7	3	7	270	0.00	29.716 
10:15	68.8	68.8	68.8	81	62.7	2	5	248	0.00	29.718 
10:20	68.6	68.6	68.6	82	62.9	2	5	270	0.00	29.718 
10:25	68.6	68.6	68.6	82	62.9	2	6	270	0.00	29.718 
10:30	68.6	68.6	68.6	82	62.9	1	4	270	0.00	29.716 
10:35	68.8	68.8	68.8	82	63.1	1	3	270	0.00	29.716 
10:40	68.6	68.6	68.6	82	62.9	1	4	292	0.00	29.716 
10:45	68.4	68.4	68.4	82	62.7	1	4	248	0.00	29.718 
10:50	68.4	68.4	68.4	83	63.0	1	4	248	0.00	29.718 
10:55	68.4	68.4	68.4	83	63.0	0	2	248	0.00	29.718 
11:00	68.6	68.6	68.6	84	63.6	1	3	248	0.00	29.715 
11:05	68.8	68.8	68.8	84	63.8	0	2	248	0.00	29.715 
11:10	68.9	68.9	68.9	83	63.5	1	2	315	0.00	29.715 
11:15	69.3	69.3	69.3	83	63.9	1	2	90	0.00	29.710 
11:20	70.3	70.3	70.3	82	64.5	1	3	315	0.00	29.710 
11:25	70.9	70.9	70.9	78	63.7	1	4	270	0.00	29.710 
11:30	72.0	72.0	72.0	79	65.1	1	2	270	0.00	29.701 
11:35	73.0	73.0	73.0	76	65.0	1	3	248	0.00	29.701 
11:40	73.7	73.7	73.7	73	64.5	1	3	248	0.00	29.701 
11:45	74.0	74.0	74.0	72	64.4	1	3	292	0.00	29.701 
11:50	74.4	74.4	74.4	71	64.4	2	5	270	0.00	29.701 
11:55	74.6	74.6	74.6	68	63.3	1	5	315	0.00	29.701 
12:00	74.4	74.4	74.4	68	63.1	2	5	270	0.00	29.700 
12:05	73.9	73.9	73.9	68	62.7	2	4	270	0.00	29.700 
12:10	73.3	73.3	73.3	69	62.5	2	6	248	0.00	29.700 
12:15	73.0	73.0	73.0	71	63.0	2	5	270	0.00	29.706 
12:20	72.8	72.8	72.8	70	62.4	2	5	270	0.00	29.706 
12:25	72.5	72.5	72.5	71	62.5	2	5	270	0.00	29.706 
12:30	72.1	72.1	72.1	72	62.6	2	5	248	0.00	29.714 
12:35	71.8	71.8	71.8	73	62.7	1	4	248	0.00	29.714 
12:40	71.8	71.8	71.8	74	63.1	2	4	270	0.00	29.714 
12:45	72.5	72.5	72.5	73	63.3	2	5	270	0.00	29.705 
12:50	73.0	73.0	73.0	71	63.0	2	5	270	0.00	29.705 
12:55	73.3	73.3	73.3	73	64.1	1	3	315	0.00	29.705 
13:00	74.2	74.2	74.2	70	63.8	2	4	315	0.00	29.696 
13:05	75.1	75.1	76.7	71	65.0	1	3	292	0.00	29.696 
13:10	75.1	75.1	76.9	68	63.8	2	4	292	0.00	29.696 
13:15	74.4	74.4	74.4	69	63.5	2	4	248	0.00	29.701 
13:20	73.3	73.3	73.3	71	63.3	1	5	270	0.00	29.701 
13:25	72.7	72.7	72.7	73	63.5	1	4	292	0.00	29.701 
13:30	72.1	72.1	72.1	74	63.3	2	4	292	0.00	29.706 
13:35	72.3	72.3	72.3	75	63.9	1	3	270	0.00	29.706 
13:40	72.3	72.3	72.3	74	63.5	2	5	270	0.00	29.706 
13:45	72.1	72.1	72.1	76	64.1	1	4	270	0.00	29.706 
13:50	72.7	72.7	72.7	75	64.3	1	3	248	0.00	29.706 
13:55	73.2	73.2	73.2	76	65.2	2	4	270	0.00	29.706 
14:00	73.9	73.9	73.9	74	65.1	1	4	270	0.00	29.701 
14:05	74.0	74.0	74.0	72	64.4	2	4	270	0.00	29.701 
14:10	74.4	74.4	74.4	73	65.2	2	4	270	0.00	29.701 
14:15	74.9	74.9	74.9	72	65.2	1	3	270	0.00	29.701 
14:20	74.9	74.9	74.9	72	65.2	1	5	270	0.00	29.701 
14:25	74.9	74.9	74.9	71	64.8	2	5	270	0.00	29.701 
14:30	74.7	74.7	74.7	71	64.7	2	3	292	0.00	29.707 
14:35	74.9	74.9	74.9	71	64.8	2	4	292	0.00	29.707 
14:40	75.1	75.1	76.8	70	64.6	1	3	292	0.00	29.707 
14:45	74.9	74.9	74.9	72	65.2	1	3	315	0.00	29.703 
14:50	74.9	74.9	74.9	70	64.4	2	4	315	0.00	29.703 
14:55	75.6	75.6	77.3	69	64.7	2	4	270	0.00	29.703 
15:00	76.1	76.1	77.9	67	64.3	2	5	292	0.00	29.711 
15:05	76.5	76.5	78.3	66	64.3	2	4	270	0.00	29.711 
15:10	76.5	76.5	78.3	65	63.8	2	4	270	0.00	29.711 
15:15	76.7	76.7	78.5	62	62.7	2	5	270	0.00	29.709 
15:20	77.2	77.2	79.0	65	64.5	1	4	292	0.00	29.709 
15:25	77.2	77.2	79.0	61	62.7	2	5	270	0.00	29.709 
15:30	77.2	77.2	79.0	63	63.6	1	2	270	0.00	29.713 
15:35	77.2	77.2	79.0	62	63.2	2	5	292	0.00	29.713 
15:40	77.2	77.2	79.0	62	63.2	2	4	292	0.00	29.713 
15:45	77.7	77.7	79.5	63	64.1	2	4	270	0.00	29.713 
15:50	78.5	78.5	80.3	62	64.4	2	4	270	0.00	29.713 
15:55	79.0	79.0	80.5	58	62.9	2	4	270	0.00	29.713 
16:00	78.8	78.8	80.3	58	62.8	2	5	292	0.00	29.710 
16:05	78.8	78.8	80.5	60	63.7	3	5	315	0.00	29.710 
16:10	78.5	78.5	80.0	58	62.5	3	5	270	0.00	29.710 
16:15	78.6	78.6	80.2	59	63.1	2	3	292	0.00	29.713 
16:20	78.1	78.1	79.5	55	60.6	2	5	292	0.00	29.713 
16:25	77.6	77.6	79.0	52	58.6	3	5	292	0.00	29.713 
16:30	77.9	77.9	79.3	53	59.4	3	6	270	0.00	29.722 
16:35	78.3	78.3	79.7	54	60.3	2	5	270	0.00	29.722 
16:40	77.9	77.9	79.3	54	59.9	2	5	270	0.00	29.722 
16:45	77.6	77.6	79.2	58	61.6	3	4	270	0.00	29.730 
16:50	78.1	78.1	79.5	54	60.1	3	7	270	0.00	29.730 
16:55	77.9	77.9	79.3	54	59.9	3	5	270	0.00	29.730 
17:00	78.1	78.1	79.5	54	60.1	2	5	270	0.00	29.739 
17:05	78.5	78.5	79.8	53	59.9	2	5	270	0.00	29.739 
17:10	77.6	77.6	79.0	52	58.6	3	7	270	0.00	29.739 
17:15	77.4	77.4	79.0	54	59.4	2	4	270	0.00	29.746 
17:20	77.7	77.7	79.2	53	59.2	3	7	270	0.00	29.746 
17:25	78.3	78.3	79.6	53	59.7	3	5	270	0.00	29.746 
17:30	78.1	78.1	79.4	52	59.0	3	7	270	0.00	29.745 
17:35	78.3	78.3	79.6	52	59.2	2	4	270	0.00	29.745 
17:40	78.5	78.5	79.6	51	58.8	2	5	270	0.00	29.745 
17:45	78.5	78.5	79.6	50	58.3	2	5	270	0.00	29.746 
17:50	78.5	78.5	79.6	50	58.3	2	6	270	0.00	29.746 
17:55	78.3	78.3	79.4	50	58.1	2	5	315	0.00	29.746 
18:00	78.3	78.3	79.4	49	57.5	3	6	270	0.00	29.743 
18:05	78.1	78.1	79.3	50	57.9	2	6	292	0.00	29.743 
18:10	78.3	78.3	79.4	49	57.5	2	7	315	0.00	29.743 
18:15	78.3	78.3	79.5	51	58.7	2	4	270	0.00	29.747 
18:20	78.5	78.5	79.6	50	58.3	1	4	315	0.00	29.747 
18:25	78.1	78.1	79.3	49	57.4	2	5	315	0.00	29.747 
18:30	77.9	77.9	79.2	50	57.7	2	6	270	0.00	29.747 
18:35	77.7	77.7	79.0	50	57.6	1	2	270	0.00	29.747 
18:40	77.7	77.7	79.0	50	57.6	1	3	270	0.00	29.747 
18:45	77.9	77.9	79.1	49	57.2	2	4	270	0.00	29.745 
18:50	77.7	77.7	78.9	46	55.2	2	4	292	0.00	29.745 
18:55	77.6	77.6	78.8	46	55.2	2	6	270	0.00	29.745 
19:00	77.4	77.4	78.8	48	56.1	2	3	315	0.00	29.746 
19:05	77.2	77.2	78.7	49	56.5	2	4	292	0.00	29.746 
19:10	77.0	77.0	78.5	48	55.8	1	4	292	0.00	29.746 
19:15	76.7	76.7	78.4	49	56.1	1	3	292	0.00	29.747 
19:20	76.3	76.3	78.2	49	55.7	1	3	292	0.00	29.747 
19:25	76.1	76.1	78.1	50	56.1	0	2	292	0.00	29.747 
19:30	75.8	75.8	78.0	50	55.8	1	3	292	0.00	29.750 
19:35	75.8	75.8	78.0	51	56.4	0	2	292	0.00	29.750 
19:40	75.6	75.6	77.9	51	56.2	1	2	292	0.00	29.750 
19:45	75.8	75.8	78.0	52	56.9	1	2	292	0.00	29.748 
19:50	76.0	76.0	78.1	52	57.1	0	1	292	0.00	29.748 
19:55	76.1	76.1	78.1	51	56.6	0	2	292	0.00	29.748 
20:00	76.1	76.1	78.1	52	57.2	0	1	292	0.00	29.747 
20:05	76.0	76.0	78.1	53	57.6	0	1	292	0.00	29.747 
20:10	76.0	76.0	78.1	53	57.6	0	1	292	0.00	29.747 
20:15	75.6	75.6	77.9	53	57.2	0	1	292	0.00	29.746 
20:20	75.4	75.4	77.8	53	57.1	0	1	292	0.00	29.746 
20:25	75.3	75.3	77.7	54	57.5	0	1	292	0.00	29.746 
20:30	74.9	74.9	74.9	55	57.6	0	1	292	0.00	29.751 
20:35	74.6	74.6	74.6	56	57.8	0	1	292	0.00	29.751 
20:40	74.2	74.2	74.2	56	57.5	0	2	292	0.00	29.751 
20:45	74.0	74.0	74.0	56	57.3	1	2	292	0.00	29.755 
20:50	73.9	73.9	73.9	57	57.7	0	2	292	0.00	29.755 
20:55	73.7	73.7	73.7	58	58.0	0	2	292	0.00	29.755 
21:00	73.5	73.5	73.5	59	58.3	0	2	292	0.00	29.763 
21:05	73.3	73.3	73.3	60	58.6	1	4	202	0.00	29.763 
21:10	73.3	73.3	73.3	60	58.6	1	3	270	0.00	29.763 
21:15	73.3	73.3	73.3	61	59.0	1	3	270	0.00	29.761 
21:20	73.0	73.0	73.0	61	58.7	0	3	270	0.00	29.761 
21:25	72.8	72.8	72.8	62	59.0	0	2	248	0.00	29.761 
21:30	72.7	72.7	72.7	62	58.9	1	3	248	0.00	29.765 
21:35	72.8	72.8	72.8	62	59.0	0	2	248	0.00	29.765 
21:40	72.7	72.7	72.7	62	58.9	0	3	248	0.00	29.765 
21:45	72.5	72.5	72.5	63	59.2	0	1	248	0.00	29.769 
21:50	72.3	72.3	72.3	63	59.0	0	2	270	0.00	29.769 
21:55	72.0	72.0	72.0	64	59.1	0	2	270	0.00	29.769 
22:00	72.0	72.0	72.0	64	59.1	0	2	270	0.00	29.777 
22:05	72.0	72.0	72.0	64	59.1	0	2	270	0.00	29.777 
22:10	71.8	71.8	71.8	65	59.4	0	2	270	0.00	29.777 
22:15	71.8	71.8	71.8	65	59.4	0	2	270	0.00	29.780 
22:20	71.8	71.8	71.8	65	59.4	1	3	270	0.00	29.780 
22:25	71.8	71.8	71.8	65	59.4	0	3	270	0.00	29.780 
22:30	71.6	71.6	71.6	65	59.2	0	2	248	0.00	29.782 
22:35	71.5	71.5	71.5	65	59.1	0	2	248	0.00	29.782 
22:40	71.3	71.3	71.3	66	59.3	0	2	248	0.00	29.782 
22:45	71.3	71.3	71.3	66	59.3	0	1	248	0.00	29.781 
22:50	71.1	71.1	71.1	66	59.2	0	1	248	0.00	29.781 
22:55	71.1	71.1	71.1	67	59.6	0	2	248	0.00	29.781 
23:00	70.9	70.9	70.9	67	59.4	0	2	248	0.00	29.782 
23:05	70.9	70.9	70.9	67	59.4	1	4	248	0.00	29.782 
23:10	70.9	70.9	70.9	67	59.4	1	3	248	0.00	29.782 
23:15	70.8	70.8	70.8	68	59.7	1	2	248	0.00	29.779 
23:20	70.6	70.6	70.6	68	59.5	0	2	270	0.00	29.779 
23:25	70.4	70.4	70.4	69	59.7	1	3	270	0.00	29.779 
23:30	70.3	70.3	70.3	69	59.6	1	3	315	0.00	29.779 
23:35	70.3	70.3	70.3	69	59.6	1	3	225	0.00	29.779 
23:40	70.1	70.1	70.1	69	59.4	0	2	270	0.00	29.779 
23:45	69.9	69.9	69.9	70	59.7	0	2	270	0.00	29.778 
23:50	69.6	69.6	69.6	71	59.8	0	1	270	0.00	29.778 
23:55	69.4	69.4	69.4	71	59.6	0	2	270	0.00	29.778 

CoCoRaHS
IN-AL-39
A2 Web Hosting
Creative Commons License
GoDaddy
search engine by freefind advanced

loaded 2018-11-20 02:22:39 • last modified 2010-11-18 10:43:29
Privacy PolicyDisclaimer
• wx.awcolley.com is powered by PmWiki v.2002016 •
• all content (unless otherwise noted) © 2018 A W Colley